Welcome to La Porte Aviation Services!

An aviation adventure awaits

Current Weather Conditions

Available data for KPPO from the past 2 hours
LA PORTE, IN
Metar
KPPO 231535Z AUTO 33009G14KT 7SM SCT014 BKN035 OVC041 21/19 A2993 RMK AO2 T02120185

15:35 UTC

Wind: 330° 9kt

Visibility: 7 SM

Sky: SCT 1400 ft

Temp: 21 deg C / 69.8 deg F

Dewpoint: 19 deg C / 66.2 deg F

Pressure: 29.93 inHg

Pireps (12)
ORD UA /OV CGT040015/TM 1524/FL350/TP CRJ9/TB CONS LGT CHOP
ORD UA /OV PMM030020/TM 1523/FL200/TP B738/TB NEG
FWA UA /OV FWA/TM 1506/FL031/TP SR22/SK SK BKN031-TOPUNKN
FWA UA /OV FWA/TM 1447/FL023/TP CRJ2/SK SK/SCT023-040
FWA UA /OV FWA/TM 1430/FL024/TP A319/SK B024
SBN UA /OV GIJ090020/TM 1411/FL290/TP GLF4/TB CONS LGT CHOP
ORD UA /OV PMM/TM 1354/FL380/TP E75S/TB MOD CHOP
BTL UA /OV BTL345017/TM 1352/FL100/TP C185/SK OVC-TOP060/OVC110/TB NEG/RM BTL SMOOTH
BTL UA /OV BTL360010 /TM 1352 /FL100 /TP C185 /RM IMC
SBN UA /OV GIJ/TM 1348/FL330/TP B737/TB OCNL LGT CHOP
ORD UA /OV OBK/TM 1347/FL340/TP A320/TB LGT CHOP/RM WEST OF JOT/OBK. EAST OF JOB/OBK SMOOTH
ORD UA /OV OBK/TM 1345/FL390/TP B737/TB LGT CHOP/RM OVER LAKE LGT CHOP 240-390

Connect with us on Facebook!

Facebook By Weblizar Powered By Weblizar